createdAt,value
2022-10-09T00:02:31.177Z,17.7
2022-10-09T00:08:08.082Z,17.7
2022-10-09T00:14:13.663Z,17.7
2022-10-09T00:19:46.682Z,17.6
2022-10-09T00:25:23.251Z,17.6
2022-10-09T00:31:19.337Z,17.6
2022-10-09T00:37:13.266Z,17.6
2022-10-09T00:42:48.194Z,17.6
2022-10-09T00:48:26.429Z,17.7
2022-10-09T00:54:01.435Z,17.7
2022-10-09T00:59:39.676Z,17.7
2022-10-09T01:05:19.558Z,17.7
2022-10-09T01:11:27.810Z,17.6
2022-10-09T01:17:02.063Z,17.6
2022-10-09T01:22:37.195Z,17.6
2022-10-09T01:28:13.341Z,17.7
2022-10-09T01:33:49.448Z,17.7
2022-10-09T01:39:24.311Z,17.7
2022-10-09T01:45:33.118Z,17.7
2022-10-09T01:51:08.322Z,17.8
2022-10-09T01:56:43.255Z,17.8
2022-10-09T02:02:24.925Z,17.8
2022-10-09T02:08:00.573Z,17.8
2022-10-09T02:13:57.434Z,17.8
2022-10-09T02:19:30.066Z,17.8
2022-10-09T02:25:09.581Z,17.8
2022-10-09T02:30:44.606Z,17.8
2022-10-09T02:36:20.329Z,17.8
2022-10-09T02:41:58.140Z,17.8
2022-10-09T02:47:33.190Z,17.8
2022-10-09T02:53:07.940Z,17.8
2022-10-09T02:58:44.134Z,17.8
2022-10-09T03:04:37.892Z,17.8
2022-10-09T03:10:30.234Z,17.7
2022-10-09T03:16:05.617Z,17.7
2022-10-09T03:21:43.013Z,17.7
2022-10-09T03:27:18.878Z,17.7
2022-10-09T03:32:56.622Z,17.7
2022-10-09T03:38:31.563Z,17.7
2022-10-09T03:44:06.778Z,17.7
2022-10-09T03:49:44.682Z,17.7
2022-10-09T03:55:27.426Z,17.6
2022-10-09T04:01:07.557Z,17.6
2022-10-09T04:06:51.982Z,17.6
2022-10-09T04:12:54.435Z,17.6
2022-10-09T04:18:28.374Z,17.5
2022-10-09T04:24:04.143Z,17.5
2022-10-09T04:29:42.796Z,17.5
2022-10-09T04:35:17.806Z,17.5
2022-10-09T04:41:04.995Z,17.5
2022-10-09T04:46:42.898Z,17.4
2022-10-09T04:52:17.814Z,17.4
2022-10-09T04:57:52.942Z,17.4
2022-10-09T05:03:30.976Z,17.3
2022-10-09T05:09:12.880Z,17.3
2022-10-09T05:14:47.697Z,17.2
2022-10-09T05:20:22.577Z,17.1
2022-10-09T05:26:42.466Z,17
2022-10-09T05:32:22.876Z,16.9
2022-10-09T05:38:02.139Z,16.8
2022-10-09T05:43:59.632Z,16.8
2022-10-09T05:49:44.785Z,16.7
2022-10-09T05:55:19.505Z,16.6
2022-10-09T06:00:57.200Z,16.6
2022-10-09T06:06:33.097Z,16.5
2022-10-09T06:12:29.609Z,16.5
2022-10-09T06:18:02.231Z,16.4
2022-10-09T06:23:38.834Z,16.4
2022-10-09T06:29:14.522Z,16.3
2022-10-09T06:35:04.179Z,16.3
2022-10-09T06:40:39.013Z,16.3
2022-10-09T06:46:14.053Z,16.3
2022-10-09T06:52:01.451Z,16.3
2022-10-09T06:57:36.351Z,15.6
2022-10-09T07:03:11.450Z,15.3
2022-10-09T07:08:47.786Z,15.4
2022-10-09T07:14:22.647Z,15.6
2022-10-09T07:19:57.495Z,15.6
2022-10-09T07:25:32.418Z,15.7
2022-10-09T07:31:08.339Z,15.8
2022-10-09T07:36:45.469Z,15.9
2022-10-09T07:42:20.369Z,16.2
2022-10-09T07:48:07.883Z,16.4
2022-10-09T07:53:43.760Z,16.5
2022-10-09T07:59:18.705Z,16.5
2022-10-09T08:04:54.359Z,16.7
2022-10-09T08:10:30.399Z,16.9
2022-10-09T08:16:06.302Z,17.1
2022-10-09T08:21:43.060Z,17.4
2022-10-09T08:27:18.523Z,17.7
2022-10-09T08:32:53.781Z,17.9
2022-10-09T08:38:46.465Z,18.1
2022-10-09T08:44:23.658Z,18.3
2022-10-09T08:49:58.482Z,18.5
2022-10-09T08:55:33.429Z,18.7
2022-10-09T09:01:09.527Z,18.9
2022-10-09T09:06:44.625Z,19.2
2022-10-09T09:12:42.046Z,19.4
2022-10-09T09:18:14.706Z,19.6
2022-10-09T09:23:49.583Z,19.9
2022-10-09T09:29:24.465Z,20.2
2022-10-09T09:34:59.486Z,20.4
2022-10-09T09:40:37.068Z,20.6
2022-10-09T09:46:30.969Z,20.8
2022-10-09T09:52:07.261Z,21.1
2022-10-09T09:57:42.280Z,21.3
2022-10-09T10:03:17.591Z,21.5
2022-10-09T10:08:52.506Z,21.8
2022-10-09T10:14:28.486Z,21.9
2022-10-09T10:20:03.399Z,22.1
2022-10-09T10:25:38.157Z,22.4
2022-10-09T10:31:14.090Z,22.6
2022-10-09T10:36:50.992Z,22.9
2022-10-09T10:42:25.808Z,23.1
2022-10-09T10:48:00.842Z,23.2
2022-10-09T10:53:36.137Z,23.5
2022-10-09T10:59:12.253Z,23.7
2022-10-09T11:04:47.442Z,23.8
2022-10-09T11:10:22.589Z,24
2022-10-09T11:15:57.724Z,24
2022-10-09T11:21:34.462Z,24.2
2022-10-09T11:27:10.801Z,24.5
2022-10-09T11:32:45.843Z,24.7
2022-10-09T11:38:21.897Z,24.8
2022-10-09T11:43:59.891Z,25
2022-10-09T11:49:34.543Z,25.1
2022-10-09T11:55:09.581Z,25.3
2022-10-09T12:00:45.044Z,25.4
2022-10-09T12:06:20.539Z,25.6
2022-10-09T12:12:17.285Z,25.7
2022-10-09T12:17:51.006Z,26.1
2022-10-09T12:23:27.780Z,25.6
2022-10-09T12:29:06.072Z,25.7
2022-10-09T12:34:41.050Z,25.9
2022-10-09T12:40:17.303Z,26.2
2022-10-09T12:45:53.178Z,26.4
2022-10-09T12:51:29.672Z,26.7
2022-10-09T12:57:30.454Z,27
2022-10-09T13:03:05.626Z,27.1
2022-10-09T13:08:40.761Z,27.3
2022-10-09T13:14:15.624Z,27.5
2022-10-09T13:19:51.977Z,27.7
2022-10-09T13:25:26.994Z,28.1
2022-10-09T13:31:02.720Z,28.4
2022-10-09T13:36:46.725Z,28.2
2022-10-09T13:42:21.877Z,28.2
2022-10-09T13:47:58.152Z,28.2
2022-10-09T13:53:34.185Z,28.4
2022-10-09T13:59:10.156Z,28.6
2022-10-09T14:04:45.219Z,28.8
2022-10-09T14:10:22.944Z,28.8
2022-10-09T14:16:02.565Z,28.7
2022-10-09T14:21:38.613Z,29.3
2022-10-09T14:27:14.598Z,38.7
2022-10-09T14:32:49.901Z,41.4
2022-10-09T14:38:27.205Z,41.3
2022-10-09T14:44:03.319Z,42.8
2022-10-09T14:49:38.518Z,42.8
2022-10-09T14:55:13.867Z,35.3
2022-10-09T15:00:48.793Z,32.1
2022-10-09T15:06:24.535Z,30.8
2022-10-09T15:12:00.230Z,29.9
2022-10-09T15:17:37.494Z,29.8
2022-10-09T15:23:12.599Z,29.5
2022-10-09T15:28:55.570Z,29.9
2022-10-09T15:34:30.555Z,30.6
2022-10-09T15:40:05.659Z,28.5
2022-10-09T15:45:40.611Z,27.7
2022-10-09T15:51:15.692Z,27
2022-10-09T15:56:50.606Z,26.7
2022-10-09T16:02:25.517Z,26.3
2022-10-09T16:08:00.492Z,25.9
2022-10-09T16:13:41.256Z,25.5
2022-10-09T16:19:15.858Z,25.5
2022-10-09T16:24:50.738Z,25.3
2022-10-09T16:30:27.000Z,25.2
2022-10-09T16:36:01.907Z,25
2022-10-09T16:41:58.592Z,24.9
2022-10-09T16:47:31.760Z,24.6
2022-10-09T16:53:06.616Z,24.4
2022-10-09T16:58:41.615Z,24.3
2022-10-09T17:04:16.387Z,23.9
2022-10-09T17:09:51.223Z,23.4
2022-10-09T17:15:26.001Z,23
2022-10-09T17:21:02.093Z,22.7
2022-10-09T17:26:37.345Z,22.3
2022-10-09T17:32:13.710Z,22.1
2022-10-09T17:37:48.540Z,21.8
2022-10-09T17:43:23.556Z,21.5
2022-10-09T17:48:58.634Z,21.3
2022-10-09T17:54:33.876Z,21
2022-10-09T18:00:09.893Z,20.9
2022-10-09T18:05:47.530Z,20.7
2022-10-09T18:11:23.362Z,20.6
2022-10-09T18:16:58.001Z,20.3
2022-10-09T18:22:32.746Z,20.1
2022-10-09T18:28:07.590Z,20.4
2022-10-09T18:34:13.377Z,20.9
2022-10-09T18:39:48.378Z,21
2022-10-09T18:45:23.619Z,21
2022-10-09T18:50:58.600Z,21
2022-10-09T18:56:44.767Z,21
2022-10-09T19:02:19.804Z,21
2022-10-09T19:08:04.528Z,20.9
2022-10-09T19:13:40.393Z,20.9
2022-10-09T19:19:15.351Z,20.9
2022-10-09T19:25:34.976Z,20.8
2022-10-09T19:31:11.918Z,20.7
2022-10-09T19:37:16.911Z,20.6
2022-10-09T19:43:14.593Z,20.6
2022-10-09T19:48:47.128Z,20.5
2022-10-09T19:55:05.309Z,20.5
2022-10-09T20:01:30.164Z,20.4
2022-10-09T20:07:13.097Z,20.3
2022-10-09T20:13:35.915Z,20.3
2022-10-09T20:19:34.071Z,20.2
2022-10-09T20:25:20.385Z,20.1
2022-10-09T20:31:00.050Z,20.1
2022-10-09T20:36:42.467Z,20.1
2022-10-09T20:43:01.714Z,20
2022-10-09T20:48:35.622Z,20
2022-10-09T20:54:10.482Z,20
2022-10-09T20:59:45.632Z,20
2022-10-09T21:05:32.460Z,20.1
2022-10-09T21:11:08.538Z,20
2022-10-09T21:16:46.246Z,20
2022-10-09T21:22:22.201Z,20
2022-10-09T21:27:56.923Z,19.9
2022-10-09T21:33:34.449Z,19.9
2022-10-09T21:39:09.561Z,19.8
2022-10-09T21:44:49.596Z,19.8
2022-10-09T21:50:27.472Z,19.7
2022-10-09T21:56:02.579Z,19.6
2022-10-09T22:01:37.596Z,19.5
2022-10-09T22:07:13.752Z,19.5
2022-10-09T22:12:48.885Z,19.5
2022-10-09T22:18:27.788Z,19.3
2022-10-09T22:24:27.168Z,19.3
2022-10-09T22:30:04.347Z,19.2
2022-10-09T22:36:08.756Z,19.1
2022-10-09T22:42:25.207Z,19.1
2022-10-09T22:47:58.294Z,19
2022-10-09T22:53:33.047Z,18.9
2022-10-09T22:59:07.917Z,18.9
2022-10-09T23:04:47.678Z,18.8
2022-10-09T23:10:26.749Z,18.8
2022-10-09T23:16:01.704Z,18.8
2022-10-09T23:21:38.676Z,18.7
2022-10-09T23:27:13.513Z,18.7
2022-10-09T23:32:51.386Z,18.6
2022-10-09T23:38:36.765Z,18.6
2022-10-09T23:44:22.667Z,18.5
2022-10-09T23:49:57.657Z,18.5
2022-10-09T23:55:55.783Z,18.4
